createdAt,value
2022-09-14T00:03:09.237Z,999.216
2022-09-14T00:23:08.104Z,999.168
2022-09-14T00:43:07.792Z,998.978
2022-09-14T01:03:08.691Z,998.751
2022-09-14T01:23:07.572Z,998.653
2022-09-14T01:43:07.342Z,998.467
2022-09-14T02:03:08.180Z,998.455
2022-09-14T02:23:08.043Z,998.191
2022-09-14T02:43:07.774Z,997.841
2022-09-14T03:03:08.432Z,997.742
2022-09-14T03:23:07.239Z,997.687
2022-09-14T03:43:07.957Z,997.511
2022-09-14T04:03:09.131Z,997.323
2022-09-14T04:23:08.027Z,997.256
2022-09-14T04:43:07.295Z,997.37
2022-09-14T05:03:08.311Z,997.246
2022-09-14T05:23:07.311Z,997.247
2022-09-14T05:43:08.245Z,997.166
2022-09-14T06:03:08.093Z,996.997
2022-09-14T06:23:07.872Z,997.098
2022-09-14T06:43:07.745Z,996.919
2022-09-14T07:03:08.856Z,997.009
2022-09-14T07:23:07.621Z,997.233
2022-09-14T07:43:07.498Z,997.192
2022-09-14T08:03:08.271Z,997.169
2022-09-14T08:23:08.218Z,997.265
2022-09-14T08:43:08.166Z,997.097
2022-09-14T09:03:08.953Z,996.94
2022-09-14T09:23:08.048Z,997.048
2022-09-14T09:43:08.194Z,996.89
2022-09-14T10:03:08.977Z,996.837
2022-09-14T10:23:07.757Z,996.784
2022-09-14T10:43:07.746Z,996.897
2022-09-14T11:03:08.908Z,996.683
2022-09-14T11:23:07.808Z,996.696
2022-09-14T11:43:07.838Z,996.779
2022-09-14T12:03:09.157Z,996.647
2022-09-14T12:23:08.078Z,996.477
2022-09-14T12:43:08.057Z,996.576
2022-09-14T13:03:09.018Z,996.332
2022-09-14T13:23:07.773Z,996.208
2022-09-14T13:43:07.772Z,996.05
2022-09-14T14:03:08.573Z,995.764
2022-09-14T14:23:07.320Z,995.701
2022-09-14T14:43:07.414Z,995.608
2022-09-14T15:03:08.482Z,995.555
2022-09-14T15:23:07.329Z,995.567
2022-09-14T15:43:07.438Z,995.377
2022-09-14T16:03:08.384Z,995.298
2022-09-14T16:23:07.218Z,995.282
2022-09-14T16:43:07.220Z,995.186
2022-09-14T17:03:09.146Z,995.219
2022-09-14T17:23:08.062Z,995.366
2022-09-14T17:43:08.126Z,995.422
2022-09-14T18:03:09.295Z,995.562
2022-09-14T18:23:07.357Z,995.715
2022-09-14T18:43:07.823Z,995.785
2022-09-14T19:03:08.883Z,995.88
2022-09-14T19:23:07.955Z,995.994
2022-09-14T19:43:08.308Z,996.076
2022-09-14T20:03:08.874Z,996.058
2022-09-14T20:23:07.897Z,996.01
2022-09-14T20:43:08.285Z,996.101
2022-09-14T21:03:08.519Z,996.212
2022-09-14T21:23:07.553Z,996.389
2022-09-14T21:43:07.656Z,996.523
2022-09-14T22:03:08.822Z,996.527
2022-09-14T22:23:07.514Z,996.505
2022-09-14T22:43:07.449Z,996.486
2022-09-14T23:03:08.214Z,996.46
2022-09-14T23:23:07.914Z,996.568
2022-09-14T23:43:07.845Z,996.649
